createdAt,value
2019-04-14T00:00:40.496Z,30.50
2019-04-14T00:03:23.704Z,31.13
2019-04-14T00:05:54.182Z,32.03
2019-04-14T00:08:24.050Z,31.95
2019-04-14T00:10:52.937Z,30.70
2019-04-14T00:13:21.800Z,30.53
2019-04-14T00:15:52.052Z,28.70
2019-04-14T00:18:20.843Z,30.07
2019-04-14T00:20:49.368Z,28.10
2019-04-14T00:23:17.960Z,27.67
2019-04-14T00:25:47.591Z,27.27
2019-04-14T00:28:16.391Z,24.70
2019-04-14T00:30:45.199Z,26.35
2019-04-14T00:33:21.433Z,24.60
2019-04-14T00:35:51.699Z,22.70
2019-04-14T00:38:39.092Z,24.30
2019-04-14T00:41:18.034Z,23.47
2019-04-14T00:43:48.469Z,22.20
2019-04-14T00:46:34.309Z,21.57
2019-04-14T00:49:04.868Z,22.42
2019-04-14T00:51:36.400Z,19.87
2019-04-14T00:54:04.402Z,21.57
2019-04-14T00:56:34.297Z,21.47
2019-04-14T00:59:02.920Z,21.07
2019-04-14T01:01:31.577Z,21.77
2019-04-14T01:04:01.169Z,21.43
2019-04-14T01:06:29.839Z,20.70
2019-04-14T01:08:58.410Z,20.87
2019-04-14T01:11:27.122Z,21.50
2019-04-14T01:13:55.642Z,22.07
2019-04-14T01:16:25.409Z,22.60
2019-04-14T01:18:54.839Z,21.60
2019-04-14T01:21:24.314Z,22.63
2019-04-14T01:23:52.978Z,23.23
2019-04-14T01:26:22.567Z,22.90
2019-04-14T01:28:51.101Z,23.33
2019-04-14T01:31:20.618Z,24.87
2019-04-14T01:33:49.343Z,24.83
2019-04-14T01:36:19.074Z,25.40
2019-04-14T01:38:49.168Z,27.35
2019-04-14T01:41:17.756Z,28.77
2019-04-14T01:43:47.432Z,28.07
2019-04-14T01:46:22.501Z,26.57
2019-04-14T01:48:47.446Z,28.03
2019-04-14T01:51:35.933Z,27.35
2019-04-14T01:54:09.084Z,28.97
2019-04-14T01:56:55.917Z,29.77
2019-04-14T01:59:24.521Z,28.47
2019-04-14T02:01:54.714Z,28.87
2019-04-14T02:04:24.544Z,29.33
2019-04-14T02:06:53.351Z,29.37
2019-04-14T02:09:22.934Z,29.32
2019-04-14T02:11:51.571Z,29.97
2019-04-14T02:14:21.178Z,29.52
2019-04-14T02:16:54.153Z,30.90
2019-04-14T02:19:20.078Z,30.13
2019-04-14T02:21:49.773Z,33.53
2019-04-14T02:24:19.994Z,32.47
2019-04-14T02:26:48.687Z,33.20
2019-04-14T02:29:17.257Z,30.53
2019-04-14T02:32:13.795Z,35.93
2019-04-14T02:34:49.525Z,34.37
2019-04-14T02:37:19.212Z,34.38
2019-04-14T02:39:48.232Z,33.87
2019-04-14T02:42:31.146Z,34.10
2019-04-14T02:44:44.202Z,36.57
2019-04-14T02:47:48.765Z,34.20
2019-04-14T02:49:51.208Z,33.60
2019-04-14T02:54:53.838Z,38.70
2019-04-14T02:57:17.607Z,36.60
2019-04-14T03:04:50.769Z,41.15
2019-04-14T03:07:21.483Z,40.57
2019-04-14T03:12:16.389Z,41.70
2019-04-14T03:14:59.277Z,41.15
2019-04-14T03:20:11.260Z,42.58
2019-04-14T03:22:43.835Z,44.47
2019-04-14T03:25:08.022Z,42.30
2019-04-14T03:27:55.205Z,39.67
2019-04-14T03:45:46.724Z,44.47
2019-04-14T03:48:33.850Z,46.77
2019-04-14T03:50:37.543Z,48.63
2019-04-14T03:53:19.175Z,46.07
2019-04-14T03:55:39.496Z,47.08
2019-04-14T03:58:00.587Z,44.83
2019-04-14T04:00:29.270Z,44.77
2019-04-14T04:02:58.358Z,45.43
2019-04-14T04:05:28.009Z,46.43
2019-04-14T04:07:56.589Z,44.47
2019-04-14T04:10:25.069Z,45.13
2019-04-14T04:12:53.682Z,46.67
2019-04-14T04:15:23.442Z,45.77
2019-04-14T04:17:56.510Z,47.70
2019-04-14T04:20:32.866Z,47.47
2019-04-14T04:23:20.454Z,45.60
2019-04-14T04:25:50.877Z,45.63
2019-04-14T04:28:29.903Z,45.37
2019-04-14T04:31:06.712Z,46.23
2019-04-14T04:33:39.571Z,47.35
2019-04-14T04:36:18.590Z,46.43
2019-04-14T04:39:04.091Z,48.90
2019-04-14T04:41:32.894Z,47.53
2019-04-14T04:44:02.921Z,47.70
2019-04-14T04:46:31.599Z,47.13
2019-04-14T04:49:09.884Z,46.83
2019-04-14T04:51:31.143Z,47.07
2019-04-14T04:53:59.819Z,45.40
2019-04-14T04:56:28.362Z,46.43
2019-04-14T04:58:56.855Z,48.80
2019-04-14T05:01:25.450Z,47.10
2019-04-14T05:03:54.008Z,49.47
2019-04-14T05:06:50.549Z,50.00
2019-04-14T05:09:23.814Z,48.80
2019-04-14T05:12:13.243Z,49.53
2019-04-14T05:14:46.392Z,48.27
2019-04-14T05:17:16.976Z,49.17
2019-04-14T05:19:45.616Z,49.17
2019-04-14T05:22:16.121Z,48.47
2019-04-14T05:24:44.442Z,50.27
2019-04-14T05:27:13.044Z,48.47
2019-04-14T05:30:00.944Z,48.58
2019-04-14T05:32:30.523Z,51.90
2019-04-14T05:34:59.270Z,48.77
2019-04-14T05:37:28.961Z,50.37
2019-04-14T05:39:57.557Z,53.20
2019-04-14T05:42:28.314Z,50.03
2019-04-14T05:44:56.389Z,52.50
2019-04-14T05:47:26.118Z,51.33
2019-04-14T05:49:56.534Z,52.15
2019-04-14T05:52:25.246Z,51.97
2019-04-14T05:54:53.811Z,52.60
2019-04-14T05:57:24.102Z,53.00
2019-04-14T05:59:53.217Z,51.93
2019-04-14T06:02:22.562Z,51.73
2019-04-14T06:04:52.482Z,54.13
2019-04-14T06:07:22.787Z,51.00
2019-04-14T06:09:51.452Z,51.10
2019-04-14T06:12:20.127Z,51.60
2019-04-14T06:14:48.670Z,52.13
2019-04-14T06:17:17.223Z,50.08
2019-04-14T06:19:45.808Z,50.30
2019-04-14T06:22:15.148Z,51.77
2019-04-14T06:24:43.685Z,51.03
2019-04-14T06:27:12.269Z,50.30
2019-04-14T06:29:40.853Z,50.35
2019-04-14T06:32:27.363Z,47.23
2019-04-14T06:35:12.649Z,50.83
2019-04-14T06:37:45.615Z,49.67
2019-04-14T06:40:14.167Z,48.83
2019-04-14T06:42:42.787Z,50.60
2019-04-14T06:45:11.555Z,47.77
2019-04-14T06:47:40.144Z,49.70
2019-04-14T06:50:08.798Z,51.20
2019-04-14T06:52:37.350Z,48.57
2019-04-14T06:55:07.523Z,49.88
2019-04-14T06:57:36.401Z,49.57
2019-04-14T07:00:05.850Z,50.25
2019-04-14T07:02:34.402Z,51.13
2019-04-14T07:05:03.080Z,51.40
2019-04-14T07:07:32.447Z,48.23
2019-04-14T07:10:01.438Z,50.20
2019-04-14T07:12:30.077Z,50.67
2019-04-14T07:14:58.696Z,51.50
2019-04-14T07:17:27.400Z,52.20
2019-04-14T07:20:02.249Z,55.40
2019-04-14T07:22:27.957Z,52.33
2019-04-14T07:24:56.510Z,55.53
2019-04-14T07:27:25.118Z,54.00
2019-04-14T07:29:55.437Z,52.67
2019-04-14T07:32:28.550Z,55.07
2019-04-14T07:35:01.791Z,51.23
2019-04-14T07:37:40.710Z,50.37
2019-04-14T07:40:13.796Z,51.57
2019-04-14T07:42:50.727Z,52.23
2019-04-14T07:45:23.741Z,55.00
2019-04-14T07:47:57.402Z,52.90
2019-04-14T07:50:43.791Z,49.83
2019-04-14T07:53:32.086Z,49.93
2019-04-14T07:56:10.889Z,49.35
2019-04-14T07:58:49.884Z,49.50
2019-04-14T08:01:26.120Z,50.33
2019-04-14T08:04:11.733Z,48.33
2019-04-14T08:06:41.938Z,51.33
2019-04-14T08:09:10.620Z,49.97
2019-04-14T08:11:39.145Z,44.67
2019-04-14T08:14:07.630Z,45.37
2019-04-14T08:16:36.298Z,44.00
2019-04-14T08:19:05.029Z,45.03
2019-04-14T08:21:33.569Z,45.40
2019-04-14T08:24:02.145Z,46.10
2019-04-14T08:26:30.701Z,46.58
2019-04-14T08:28:59.258Z,50.40
2019-04-14T08:31:27.855Z,50.60
2019-04-14T08:33:56.350Z,50.73
2019-04-14T08:36:25.177Z,51.40
2019-04-14T08:38:53.696Z,52.00
2019-04-14T08:41:22.422Z,49.10
2019-04-14T08:43:55.392Z,51.58
2019-04-14T08:46:25.545Z,49.00
2019-04-14T08:49:01.422Z,47.33
2019-04-14T08:51:40.762Z,48.83
2019-04-14T08:54:27.216Z,47.93
2019-04-14T08:57:12.578Z,48.50
2019-04-14T08:59:55.092Z,51.40
2019-04-14T09:02:27.968Z,49.90
2019-04-14T09:05:04.017Z,50.52
2019-04-14T09:07:37.112Z,47.38
2019-04-14T09:10:27.216Z,50.23
2019-04-14T09:12:58.224Z,50.73
2019-04-14T09:15:26.767Z,52.53
2019-04-14T09:17:55.402Z,50.25
2019-04-14T09:20:24.005Z,50.88
2019-04-14T09:22:52.849Z,49.60
2019-04-14T09:25:21.505Z,52.20
2019-04-14T09:27:50.098Z,51.92
2019-04-14T09:30:19.211Z,49.63
2019-04-14T09:32:47.840Z,46.90
2019-04-14T09:35:16.500Z,45.85
2019-04-14T09:37:45.078Z,46.10
2019-04-14T09:40:13.832Z,46.60
2019-04-14T09:42:42.529Z,52.55
2019-04-14T09:45:11.280Z,49.95
2019-04-14T09:47:39.931Z,49.54
2019-04-14T09:50:08.671Z,49.58
2019-04-14T09:52:37.238Z,50.90
2019-04-14T09:55:07.302Z,45.83
2019-04-14T09:57:36.059Z,47.90
2019-04-14T10:00:07.119Z,46.92
2019-04-14T10:02:35.736Z,48.78
2019-04-14T10:05:06.100Z,49.90
2019-04-14T10:07:34.648Z,50.03
2019-04-14T10:10:03.207Z,47.98
2019-04-14T10:12:32.049Z,48.58
2019-04-14T10:15:00.704Z,45.88
2019-04-14T10:17:29.252Z,45.65
2019-04-14T10:19:57.907Z,44.15
2019-04-14T10:22:33.890Z,44.00
2019-04-14T10:24:56.652Z,45.43
2019-04-14T10:27:25.211Z,49.17
2019-04-14T10:29:53.797Z,44.50
2019-04-14T10:32:22.454Z,40.70
2019-04-14T10:34:51.037Z,42.80
2019-04-14T10:37:19.649Z,42.30
2019-04-14T10:39:48.161Z,42.40
2019-04-14T10:42:37.736Z,40.58
2019-04-14T10:45:07.341Z,40.40
2019-04-14T10:47:36.008Z,39.27
2019-04-14T10:50:06.201Z,36.25
2019-04-14T10:52:34.776Z,36.75
2019-04-14T10:55:04.387Z,33.27
2019-04-14T10:57:32.984Z,29.92
2019-04-14T11:00:01.557Z,32.00
2019-04-14T11:02:30.140Z,30.72
2019-04-14T11:04:59.215Z,28.92
2019-04-14T11:07:29.470Z,28.85
2019-04-14T11:09:58.017Z,29.60
2019-04-14T11:12:26.637Z,28.95
2019-04-14T11:14:55.191Z,28.90
2019-04-14T11:17:23.845Z,26.87
2019-04-14T11:19:52.451Z,27.10
2019-04-14T11:22:22.063Z,27.67
2019-04-14T11:24:50.642Z,25.43
2019-04-14T11:27:19.595Z,25.17
2019-04-14T11:29:53.683Z,26.27
2019-04-14T11:32:36.497Z,25.57
2019-04-14T11:35:07.432Z,25.95
2019-04-14T11:37:54.063Z,23.35
2019-04-14T11:40:24.417Z,22.75
2019-04-14T11:42:53.047Z,22.58
2019-04-14T11:45:21.701Z,23.98
2019-04-14T11:47:50.332Z,23.70
2019-04-14T11:50:18.921Z,23.42
2019-04-14T11:52:48.102Z,23.16
2019-04-14T11:55:16.655Z,24.72
2019-04-14T11:57:45.309Z,23.60
2019-04-14T12:00:31.120Z,25.68
2019-04-14T12:03:17.938Z,22.74
2019-04-14T12:06:04.263Z,23.25
2019-04-14T12:08:40.237Z,21.30
2019-04-14T12:11:09.107Z,21.95
2019-04-14T12:13:37.712Z,20.23
2019-04-14T12:16:06.715Z,19.30
2019-04-14T12:18:35.305Z,20.65
2019-04-14T12:21:03.971Z,20.35
2019-04-14T12:23:32.562Z,19.75
2019-04-14T12:26:05.736Z,21.97
2019-04-14T12:28:32.233Z,18.00
2019-04-14T12:31:02.007Z,15.95
2019-04-14T12:33:30.644Z,15.80
2019-04-14T12:35:59.207Z,14.80
2019-04-14T12:38:27.849Z,15.25
2019-04-14T12:40:58.930Z,15.20
2019-04-14T12:43:28.427Z,14.10
2019-04-14T12:46:01.561Z,15.20
2019-04-14T12:48:48.196Z,15.08
2019-04-14T12:51:21.111Z,14.63
2019-04-14T12:53:49.755Z,15.75
2019-04-14T12:56:20.029Z,14.75
2019-04-14T12:58:56.060Z,14.18
2019-04-14T13:01:26.334Z,15.13
2019-04-14T13:03:55.430Z,14.36
2019-04-14T13:06:23.989Z,13.80
2019-04-14T13:08:52.608Z,14.60
2019-04-14T13:11:21.197Z,15.37
2019-04-14T13:13:49.907Z,14.47
2019-04-14T13:16:18.463Z,14.85
2019-04-14T13:18:47.134Z,14.13
2019-04-14T13:21:15.625Z,15.13
2019-04-14T13:23:44.205Z,13.40
2019-04-14T13:26:13.260Z,16.67
2019-04-14T13:28:43.102Z,15.45
2019-04-14T13:31:11.713Z,16.30
2019-04-14T13:33:40.457Z,15.10
2019-04-14T13:36:09.080Z,15.18
2019-04-14T13:38:37.751Z,15.40
2019-04-14T13:41:06.484Z,14.53
2019-04-14T13:43:35.475Z,13.75
2019-04-14T13:46:04.169Z,14.68
2019-04-14T13:48:33.100Z,13.00
2019-04-14T13:51:02.001Z,12.98
2019-04-14T13:53:30.714Z,11.85
2019-04-14T13:55:59.372Z,11.55
2019-04-14T13:58:27.929Z,12.18
2019-04-14T14:00:56.480Z,13.53
2019-04-14T14:03:25.207Z,12.10
2019-04-14T14:05:53.826Z,13.32
2019-04-14T14:08:22.307Z,12.95
2019-04-14T14:10:52.577Z,13.18
2019-04-14T14:13:22.889Z,13.40
2019-04-14T14:15:58.952Z,13.58
2019-04-14T14:18:29.175Z,13.65
2019-04-14T14:20:59.375Z,13.08
2019-04-14T14:23:29.505Z,14.70
2019-04-14T14:26:02.982Z,13.83
2019-04-14T14:28:31.650Z,14.93
2019-04-14T14:31:01.109Z,14.23
2019-04-14T14:33:29.699Z,14.73
2019-04-14T14:35:58.295Z,13.60
2019-04-14T14:38:27.254Z,13.60
2019-04-14T14:40:57.525Z,13.60
2019-04-14T14:43:26.082Z,13.95
2019-04-14T14:45:56.276Z,13.53
2019-04-14T14:48:29.296Z,13.43
2019-04-14T14:51:08.322Z,13.13
2019-04-14T14:53:36.927Z,14.68
2019-04-14T14:56:05.652Z,13.98
2019-04-14T14:58:34.222Z,13.88
2019-04-14T15:01:04.358Z,13.53
2019-04-14T15:03:32.991Z,12.95
2019-04-14T15:06:01.696Z,13.62
2019-04-14T15:08:30.242Z,13.13
2019-04-14T15:10:59.260Z,14.14
2019-04-14T15:13:27.822Z,13.38
2019-04-14T15:15:56.459Z,14.43
2019-04-14T15:18:25.190Z,14.05
2019-04-14T15:20:53.868Z,13.93
2019-04-14T15:23:25.396Z,13.27
2019-04-14T15:25:52.731Z,13.50
2019-04-14T15:28:21.295Z,12.98
2019-04-14T15:30:49.840Z,15.68
2019-04-14T15:33:19.282Z,13.53
2019-04-14T15:35:48.690Z,13.13
2019-04-14T15:38:17.239Z,12.60
2019-04-14T15:40:45.757Z,12.33
2019-04-14T15:43:14.245Z,12.33
2019-04-14T15:45:42.842Z,13.10
2019-04-14T15:48:11.428Z,11.73
2019-04-14T15:50:39.990Z,11.68
2019-04-14T15:53:08.550Z,11.73
2019-04-14T15:55:37.142Z,12.47
2019-04-14T15:58:07.365Z,12.15
2019-04-14T16:00:40.363Z,11.83
2019-04-14T16:03:19.574Z,11.70
2019-04-14T16:05:49.767Z,11.08
2019-04-14T16:08:19.986Z,11.40
2019-04-14T16:10:52.984Z,11.97
2019-04-14T16:13:26.132Z,11.20
2019-04-14T16:15:56.317Z,11.30
2019-04-14T16:18:42.394Z,11.60
2019-04-14T16:21:10.962Z,16.42
2019-04-14T16:23:50.019Z,12.20
2019-04-14T16:26:27.664Z,11.88
2019-04-14T16:29:03.701Z,10.82
2019-04-14T16:31:46.049Z,10.90
2019-04-14T16:34:22.125Z,10.85
2019-04-14T16:36:52.326Z,10.95
2019-04-14T16:39:21.000Z,10.72
2019-04-14T16:41:49.646Z,11.43
2019-04-14T16:44:18.231Z,11.48
2019-04-14T16:46:47.104Z,11.30
2019-04-14T16:49:16.395Z,11.63
2019-04-14T16:51:46.591Z,11.40
2019-04-14T16:54:29.045Z,11.53
2019-04-14T16:57:17.104Z,10.70
2019-04-14T16:59:46.324Z,10.84
2019-04-14T17:02:15.001Z,11.48
2019-04-14T17:04:43.552Z,12.23
2019-04-14T17:07:12.103Z,11.57
2019-04-14T17:09:41.672Z,13.13
2019-04-14T17:12:10.181Z,11.40
2019-04-14T17:14:52.391Z,11.75
2019-04-14T17:17:22.850Z,10.65
2019-04-14T17:19:53.170Z,11.33
2019-04-14T17:22:29.058Z,10.50
2019-04-14T17:25:01.313Z,11.08
2019-04-14T17:27:46.267Z,11.90
2019-04-14T17:30:22.934Z,11.46
2019-04-14T17:33:04.707Z,11.25
2019-04-14T17:35:50.065Z,10.55
2019-04-14T17:38:34.966Z,11.50
2019-04-14T17:41:06.207Z,11.00
2019-04-14T17:43:36.417Z,11.43
2019-04-14T17:46:22.669Z,11.40
2019-04-14T17:48:55.654Z,11.40
2019-04-14T17:51:34.758Z,12.28
2019-04-14T17:54:29.167Z,11.78
2019-04-14T17:56:51.945Z,12.18
2019-04-14T17:59:22.139Z,11.10
2019-04-14T18:02:10.182Z,11.40
2019-04-14T18:04:43.416Z,11.90
2019-04-14T18:07:16.024Z,10.72
2019-04-14T18:09:52.098Z,11.63
2019-04-14T18:12:25.176Z,11.22
2019-04-14T18:14:57.839Z,11.53
2019-04-14T18:17:27.986Z,12.40
2019-04-14T18:19:58.285Z,11.45
2019-04-14T18:22:26.842Z,9.98
2019-04-14T18:24:55.473Z,11.53
2019-04-14T18:27:24.034Z,10.88
2019-04-14T18:30:10.147Z,11.97
2019-04-14T18:32:43.110Z,11.15
2019-04-14T18:35:16.421Z,12.20
2019-04-14T18:37:46.690Z,12.37
2019-04-14T18:40:17.004Z,12.53
2019-04-14T18:42:47.239Z,12.15
2019-04-14T18:45:27.564Z,12.23
2019-04-14T18:47:57.975Z,11.45
2019-04-14T18:50:44.437Z,11.57
2019-04-14T18:53:14.690Z,11.70
2019-04-14T18:55:53.851Z,12.14
2019-04-14T18:58:23.982Z,11.60
2019-04-14T19:01:03.515Z,12.00
2019-04-14T19:03:32.207Z,11.97
2019-04-14T19:06:00.783Z,11.53
2019-04-14T19:08:29.371Z,12.60
2019-04-14T19:11:08.311Z,12.75
2019-04-14T19:13:38.292Z,12.85
2019-04-14T19:16:17.337Z,12.20
2019-04-14T19:18:50.633Z,13.78
2019-04-14T19:21:21.139Z,12.50
2019-04-14T19:23:49.807Z,13.55
2019-04-14T19:26:18.529Z,13.83
2019-04-14T19:28:47.727Z,14.20
2019-04-14T19:31:16.530Z,13.95
2019-04-14T19:33:45.163Z,14.18
2019-04-14T19:36:13.730Z,14.45
2019-04-14T19:38:42.404Z,13.40
2019-04-14T19:41:11.081Z,14.60
2019-04-14T19:43:39.727Z,14.63
2019-04-14T19:46:08.567Z,14.23
2019-04-14T19:48:37.184Z,14.07
2019-04-14T19:51:06.167Z,15.08
2019-04-14T19:53:35.215Z,14.85
2019-04-14T19:56:03.755Z,15.13
2019-04-14T19:58:32.342Z,14.60
2019-04-14T20:01:00.989Z,13.98
2019-04-14T20:03:29.594Z,13.38
2019-04-14T20:05:58.213Z,13.67
2019-04-14T20:08:30.146Z,14.18
2019-04-14T20:10:58.750Z,12.97
2019-04-14T20:13:28.944Z,12.58
2019-04-14T20:16:15.752Z,12.70
2019-04-14T20:18:45.937Z,12.63
2019-04-14T20:21:31.991Z,13.07
2019-04-14T20:24:05.336Z,13.27
2019-04-14T20:26:38.069Z,14.30
2019-04-14T20:29:11.205Z,12.33
2019-04-14T20:31:44.613Z,12.73
2019-04-14T20:34:13.209Z,12.50
2019-04-14T20:36:41.761Z,11.40
2019-04-14T20:39:12.074Z,11.30
2019-04-14T20:41:45.946Z,11.25
2019-04-14T20:44:14.677Z,12.13
2019-04-14T20:46:43.215Z,11.63
2019-04-14T20:49:11.759Z,10.77
2019-04-14T20:51:40.319Z,10.93
2019-04-14T20:54:10.738Z,11.00
2019-04-14T20:56:40.040Z,10.77
2019-04-14T20:59:08.617Z,11.90
2019-04-14T21:01:39.785Z,11.23
2019-04-14T21:04:09.954Z,12.20
2019-04-14T21:06:46.031Z,11.40
2019-04-14T21:09:32.304Z,11.60
2019-04-14T21:12:05.427Z,11.67
2019-04-14T21:14:52.092Z,11.23
2019-04-14T21:17:28.325Z,11.37
2019-04-14T21:20:03.990Z,11.25
2019-04-14T21:22:46.278Z,11.33
2019-04-14T21:25:19.060Z,12.65
2019-04-14T21:28:07.354Z,12.90
2019-04-14T21:30:37.472Z,12.27
2019-04-14T21:33:10.538Z,12.23
2019-04-14T21:35:50.982Z,12.13
2019-04-14T21:38:29.967Z,11.13
2019-04-14T21:41:00.087Z,10.83
2019-04-14T21:43:28.615Z,10.75
2019-04-14T21:45:57.294Z,12.10
2019-04-14T21:48:25.955Z,11.67
2019-04-14T21:50:54.554Z,13.00
2019-04-14T21:53:23.095Z,14.67
2019-04-14T21:55:51.727Z,14.60
2019-04-14T21:58:24.530Z,15.37
2019-04-14T22:01:32.812Z,16.53
2019-04-14T22:04:06.329Z,16.27
2019-04-14T22:06:42.332Z,15.10
2019-04-14T22:09:29.731Z,15.18
2019-04-14T22:11:59.565Z,14.73
2019-04-14T22:14:28.125Z,14.50
2019-04-14T22:16:56.713Z,14.80
2019-04-14T22:19:25.416Z,15.07
2019-04-14T22:21:54.152Z,13.27
2019-04-14T22:24:22.738Z,14.23
2019-04-14T22:26:51.306Z,13.50
2019-04-14T22:29:20.237Z,12.83
2019-04-14T22:31:48.904Z,12.87
2019-04-14T22:34:17.470Z,14.03
2019-04-14T22:36:48.479Z,12.07
2019-04-14T22:39:18.608Z,12.73
2019-04-14T22:41:47.222Z,13.27
2019-04-14T22:44:15.769Z,13.33
2019-04-14T22:46:44.284Z,13.70
2019-04-14T22:49:12.753Z,13.57
2019-04-14T22:51:41.870Z,13.70
2019-04-14T22:54:10.494Z,13.50
2019-04-14T22:56:39.851Z,12.90
2019-04-14T22:59:08.629Z,13.70
2019-04-14T23:01:38.932Z,14.20
2019-04-14T23:04:15.980Z,13.45
2019-04-14T23:06:55.243Z,12.97
2019-04-14T23:09:25.439Z,13.30
2019-04-14T23:11:55.709Z,12.87
2019-04-14T23:14:25.916Z,12.20
2019-04-14T23:17:12.500Z,12.20
2019-04-14T23:19:55.122Z,11.97
2019-04-14T23:22:40.355Z,11.43
2019-04-14T23:25:09.140Z,11.93
2019-04-14T23:27:37.721Z,11.13
2019-04-14T23:30:06.970Z,11.10
2019-04-14T23:32:35.546Z,11.10
2019-04-14T23:35:06.551Z,11.33
2019-04-14T23:37:35.209Z,11.15
2019-04-14T23:40:05.107Z,10.83
2019-04-14T23:42:33.656Z,10.07
2019-04-14T23:45:02.246Z,10.77
2019-04-14T23:47:30.722Z,10.37
2019-04-14T23:49:59.271Z,10.80
2019-04-14T23:52:27.820Z,11.47
2019-04-14T23:54:56.436Z,11.83
2019-04-14T23:57:24.919Z,12.23
2019-04-14T23:59:53.430Z,11.75
